createdAt,value
2023-04-10T00:00:38.506Z,7.43
2023-04-10T00:03:06.054Z,7.00
2023-04-10T00:05:33.275Z,7.27
2023-04-10T00:08:00.511Z,6.73
2023-04-10T00:10:29.379Z,6.87
2023-04-10T00:12:56.532Z,6.67
2023-04-10T00:15:23.806Z,7.47
2023-04-10T00:17:55.252Z,6.70
2023-04-10T00:20:23.355Z,7.43
2023-04-10T00:22:50.346Z,7.83
2023-04-10T00:25:17.368Z,6.77
2023-04-10T00:27:44.210Z,7.07
2023-04-10T00:30:11.353Z,7.10
2023-04-10T00:32:38.781Z,7.07
2023-04-10T00:35:06.163Z,7.67
2023-04-10T00:37:33.048Z,7.50
2023-04-10T00:40:00.666Z,7.80
2023-04-10T00:42:27.500Z,6.97
2023-04-10T00:44:54.540Z,6.97
2023-04-10T00:47:21.906Z,6.77
2023-04-10T00:49:49.052Z,7.00
2023-04-10T00:52:16.096Z,7.13
2023-04-10T00:54:43.036Z,7.80
2023-04-10T00:57:10.467Z,7.13
2023-04-10T00:59:37.545Z,6.90
2023-04-10T01:02:04.742Z,7.30
2023-04-10T01:04:32.787Z,7.07
2023-04-10T01:07:25.712Z,7.63
2023-04-10T01:09:55.424Z,7.00
2023-04-10T01:12:39.300Z,6.97
2023-04-10T01:15:20.950Z,8.07
2023-04-10T01:18:11.460Z,6.87
2023-04-10T01:20:40.170Z,7.50
2023-04-10T01:23:16.509Z,7.03
2023-04-10T01:25:53.993Z,7.27
2023-04-10T01:28:26.733Z,7.80
2023-04-10T01:31:00.563Z,7.07
2023-04-10T01:33:35.307Z,8.50
2023-04-10T01:36:06.282Z,7.50
2023-04-10T01:38:34.115Z,7.27
2023-04-10T01:41:01.881Z,7.77
2023-04-10T01:43:31.506Z,7.90
2023-04-10T01:46:00.346Z,7.63
2023-04-10T01:48:28.235Z,8.23
2023-04-10T01:50:57.334Z,7.63
2023-04-10T01:53:24.977Z,8.10
2023-04-10T01:55:53.610Z,7.77
2023-04-10T01:58:20.756Z,7.90
2023-04-10T02:00:47.794Z,8.10
2023-04-10T02:03:15.023Z,8.07
2023-04-10T02:06:17.907Z,7.83
2023-04-10T02:08:55.130Z,8.27
2023-04-10T02:11:30.040Z,7.70
2023-04-10T02:14:01.108Z,7.47
2023-04-10T02:16:30.720Z,7.13
2023-04-10T02:19:00.108Z,7.47
2023-04-10T02:21:27.605Z,7.67
2023-04-10T02:23:56.504Z,7.40
2023-04-10T02:26:23.282Z,7.37
2023-04-10T02:28:50.140Z,8.53
2023-04-10T02:31:17.610Z,8.10
2023-04-10T02:33:44.639Z,7.33
2023-04-10T02:36:11.610Z,6.93
2023-04-10T02:38:38.760Z,8.13
2023-04-10T02:41:05.858Z,7.73
2023-04-10T02:43:32.805Z,7.77
2023-04-10T02:46:00.139Z,8.27
2023-04-10T02:48:27.004Z,7.70
2023-04-10T02:50:59.993Z,7.73
2023-04-10T02:53:26.847Z,8.07
2023-04-10T02:55:54.947Z,8.00
2023-04-10T02:58:24.502Z,7.40
2023-04-10T03:00:52.271Z,7.83
2023-04-10T03:03:20.020Z,7.63
2023-04-10T03:05:49.543Z,7.30
2023-04-10T03:08:17.649Z,7.60
2023-04-10T03:10:48.646Z,7.93
2023-04-10T03:13:16.026Z,7.60
2023-04-10T03:15:43.083Z,8.23
2023-04-10T03:18:10.819Z,8.20
2023-04-10T03:20:38.996Z,8.37
2023-04-10T03:23:07.541Z,7.97
2023-04-10T03:25:34.963Z,8.93
2023-04-10T03:28:02.146Z,6.53
2023-04-10T03:30:29.314Z,8.10
2023-04-10T03:32:56.160Z,8.53
2023-04-10T03:35:23.104Z,7.57
2023-04-10T03:37:49.942Z,8.20
2023-04-10T03:40:16.811Z,8.23
2023-04-10T03:42:43.553Z,8.33
2023-04-10T03:45:11.187Z,7.87
2023-04-10T03:47:38.396Z,8.23
2023-04-10T03:50:05.994Z,8.33
2023-04-10T03:52:32.889Z,8.07
2023-04-10T03:54:59.781Z,8.03
2023-04-10T03:57:26.632Z,7.57
2023-04-10T03:59:53.459Z,7.07
2023-04-10T04:02:20.371Z,8.07
2023-04-10T04:04:47.769Z,7.83
2023-04-10T04:07:14.794Z,8.47
2023-04-10T04:09:41.656Z,7.30
2023-04-10T04:12:08.819Z,7.97
2023-04-10T04:14:35.854Z,7.47
2023-04-10T04:17:02.799Z,7.77
2023-04-10T04:19:30.132Z,6.97
2023-04-10T04:21:57.889Z,7.70
2023-04-10T04:24:25.289Z,7.70
2023-04-10T04:26:52.515Z,7.87
2023-04-10T04:29:19.703Z,7.90
2023-04-10T04:31:46.906Z,7.73
2023-04-10T04:34:14.172Z,7.60
2023-04-10T04:36:41.425Z,7.17
2023-04-10T04:39:08.584Z,7.70
2023-04-10T04:41:35.864Z,7.67
2023-04-10T04:44:03.281Z,6.73
2023-04-10T04:46:30.867Z,7.07
2023-04-10T04:48:58.153Z,7.50
2023-04-10T04:51:25.763Z,7.07
2023-04-10T04:53:53.572Z,7.80
2023-04-10T04:56:20.876Z,7.10
2023-04-10T04:58:48.230Z,7.60
2023-04-10T05:01:15.899Z,7.10
2023-04-10T05:03:43.389Z,6.93
2023-04-10T05:06:11.100Z,6.70
2023-04-10T05:08:38.700Z,7.17
2023-04-10T05:11:06.260Z,7.23
2023-04-10T05:13:33.479Z,7.50
2023-04-10T05:16:01.311Z,6.97
2023-04-10T05:18:28.968Z,7.33
2023-04-10T05:20:56.110Z,7.87
2023-04-10T05:23:23.240Z,7.13
2023-04-10T05:25:50.703Z,6.60
2023-04-10T05:28:18.219Z,7.43
2023-04-10T05:30:45.513Z,7.23
2023-04-10T05:33:12.918Z,7.17
2023-04-10T05:35:40.397Z,7.17
2023-04-10T05:38:07.724Z,7.73
2023-04-10T05:40:34.911Z,7.97
2023-04-10T05:43:02.132Z,7.40
2023-04-10T05:45:30.155Z,7.47
2023-04-10T05:47:57.376Z,7.30
2023-04-10T05:50:24.547Z,7.30
2023-04-10T05:52:51.850Z,7.87
2023-04-10T05:55:19.097Z,6.43
2023-04-10T05:57:46.458Z,8.07
2023-04-10T06:00:15.113Z,7.30
2023-04-10T06:02:42.530Z,7.40
2023-04-10T06:05:10.103Z,7.23
2023-04-10T06:07:37.568Z,7.60
2023-04-10T06:10:04.999Z,7.07
2023-04-10T06:12:32.181Z,7.43
2023-04-10T06:14:59.317Z,7.50
2023-04-10T06:17:28.286Z,7.77
2023-04-10T06:19:56.818Z,7.40
2023-04-10T06:22:23.984Z,7.47
2023-04-10T06:24:51.762Z,7.47
2023-04-10T06:27:18.961Z,7.33
2023-04-10T06:29:46.217Z,6.80
2023-04-10T06:32:13.340Z,6.57
2023-04-10T06:34:40.551Z,7.50
2023-04-10T06:37:07.947Z,6.30
2023-04-10T06:39:35.460Z,6.27
2023-04-10T06:42:03.524Z,7.32
2023-04-10T06:44:30.734Z,8.20
2023-04-10T06:46:57.932Z,7.60
2023-04-10T06:49:25.398Z,6.77
2023-04-10T06:51:52.617Z,6.87
2023-04-10T06:54:19.971Z,5.93
2023-04-10T06:56:47.169Z,6.97
2023-04-10T06:59:14.329Z,6.80
2023-04-10T07:01:41.522Z,7.00
2023-04-10T07:04:08.910Z,6.10
2023-04-10T07:06:36.499Z,6.03
2023-04-10T07:09:03.764Z,6.27
2023-04-10T07:11:30.892Z,6.27
2023-04-10T07:13:58.827Z,5.50
2023-04-10T07:16:26.296Z,5.30
2023-04-10T07:18:53.907Z,6.20
2023-04-10T07:21:21.410Z,6.53
2023-04-10T07:23:48.584Z,6.47
2023-04-10T07:26:16.492Z,7.10
2023-04-10T07:28:43.757Z,6.20
2023-04-10T07:31:11.866Z,6.40
2023-04-10T07:33:39.245Z,5.37
2023-04-10T07:36:07.008Z,5.50
2023-04-10T07:38:34.167Z,6.53
2023-04-10T07:41:01.332Z,5.80
2023-04-10T07:43:28.462Z,6.20
2023-04-10T07:45:56.638Z,5.83
2023-04-10T07:48:23.851Z,6.00
2023-04-10T07:50:51.176Z,5.90
2023-04-10T07:53:18.356Z,5.40
2023-04-10T07:55:48.713Z,5.53
2023-04-10T07:58:16.382Z,5.03
2023-04-10T08:00:43.587Z,6.67
2023-04-10T08:03:11.953Z,5.73
2023-04-10T08:05:39.241Z,5.93
2023-04-10T08:08:06.433Z,5.93
2023-04-10T08:10:33.611Z,5.20
2023-04-10T08:13:00.783Z,5.87
2023-04-10T08:15:27.930Z,5.37
2023-04-10T08:17:55.292Z,5.33
2023-04-10T08:20:22.473Z,4.37
2023-04-10T08:22:49.829Z,5.20
2023-04-10T08:25:17.211Z,6.17
2023-04-10T08:27:44.383Z,5.00
2023-04-10T08:30:11.702Z,5.17
2023-04-10T08:32:39.731Z,5.67
2023-04-10T08:35:07.148Z,5.13
2023-04-10T08:37:34.293Z,5.10
2023-04-10T08:40:02.177Z,5.37
2023-04-10T08:42:29.204Z,5.40
2023-04-10T08:44:56.027Z,5.47
2023-04-10T08:47:27.909Z,5.33
2023-04-10T08:49:57.903Z,4.87
2023-04-10T08:52:31.546Z,5.17
2023-04-10T08:55:00.435Z,5.00
2023-04-10T08:57:27.994Z,5.30
2023-04-10T08:59:55.578Z,4.93
2023-04-10T09:02:22.857Z,5.87
2023-04-10T09:04:51.895Z,4.38
2023-04-10T09:07:18.826Z,6.10
2023-04-10T09:09:45.660Z,6.03
2023-04-10T09:12:16.597Z,4.80
2023-04-10T09:14:43.730Z,4.87
2023-04-10T09:17:19.434Z,4.53
2023-04-10T09:19:49.483Z,4.55
2023-04-10T09:22:17.001Z,4.90
2023-04-10T09:24:45.232Z,4.23
2023-04-10T09:27:29.134Z,4.43
2023-04-10T09:29:56.103Z,4.60
2023-04-10T09:32:41.740Z,4.47
2023-04-10T09:35:10.831Z,4.38
2023-04-10T09:37:38.672Z,4.72
2023-04-10T09:40:06.396Z,4.22
2023-04-10T09:42:37.509Z,3.92
2023-04-10T09:45:05.637Z,4.00
2023-04-10T09:47:33.118Z,3.95
2023-04-10T09:50:01.037Z,4.38
2023-04-10T09:52:30.504Z,4.05
2023-04-10T09:55:03.622Z,3.92
2023-04-10T09:57:32.230Z,3.65
2023-04-10T10:00:00.822Z,4.75
2023-04-10T10:02:31.677Z,4.00
2023-04-10T10:05:01.903Z,3.78
2023-04-10T10:07:30.832Z,4.38
2023-04-10T10:09:58.946Z,4.03
2023-04-10T10:12:40.106Z,3.83
2023-04-10T10:15:18.779Z,4.30
2023-04-10T10:18:04.608Z,4.38
2023-04-10T10:20:35.338Z,3.63
2023-04-10T10:23:03.907Z,4.03
2023-04-10T10:25:31.669Z,3.80
2023-04-10T10:28:02.271Z,3.67
2023-04-10T10:30:30.769Z,4.03
2023-04-10T10:33:00.699Z,4.43
2023-04-10T10:35:29.526Z,3.85
2023-04-10T10:38:00.224Z,3.55
2023-04-10T10:40:37.484Z,4.07
2023-04-10T10:43:48.659Z,4.00
2023-04-10T10:46:22.279Z,4.03
2023-04-10T10:48:59.386Z,3.25
2023-04-10T10:51:52.542Z,4.57
2023-04-10T10:54:42.469Z,3.80
2023-04-10T10:57:46.588Z,3.40
2023-04-10T11:00:13.894Z,3.83
2023-04-10T11:02:40.813Z,3.22
2023-04-10T11:05:07.993Z,4.30
2023-04-10T11:08:06.815Z,3.78
2023-04-10T11:11:08.156Z,3.80
2023-04-10T11:13:38.198Z,3.97
2023-04-10T11:16:07.136Z,3.10
2023-04-10T11:18:46.142Z,3.83
2023-04-10T11:21:17.487Z,3.40
2023-04-10T11:23:50.629Z,3.58
2023-04-10T11:26:36.913Z,3.65
2023-04-10T11:29:05.620Z,3.30
2023-04-10T11:31:33.758Z,3.90
2023-04-10T11:34:04.377Z,2.55
2023-04-10T11:36:32.242Z,3.85
2023-04-10T11:39:10.321Z,3.35
2023-04-10T11:41:39.202Z,3.08
2023-04-10T11:44:07.603Z,4.15
2023-04-10T11:46:39.031Z,4.25
2023-04-10T11:49:07.954Z,3.83
2023-04-10T11:51:34.755Z,4.07
2023-04-10T11:54:12.417Z,3.08
2023-04-10T11:56:41.086Z,4.05
2023-04-10T11:59:10.987Z,3.58
2023-04-10T12:01:39.944Z,3.42
2023-04-10T12:04:20.202Z,4.03
2023-04-10T12:06:56.465Z,3.75
2023-04-10T12:09:23.701Z,3.22
2023-04-10T12:12:03.532Z,2.55
2023-04-10T12:14:41.720Z,6.22
2023-04-10T12:17:12.972Z,7.80
2023-04-10T12:19:40.290Z,3.33
2023-04-10T12:22:07.761Z,5.25
2023-04-10T12:24:51.830Z,3.10
2023-04-10T12:27:29.273Z,3.42
2023-04-10T12:29:58.326Z,3.28
2023-04-10T12:32:27.268Z,3.55
2023-04-10T12:35:01.207Z,3.38
2023-04-10T12:37:55.653Z,5.25
2023-04-10T12:40:22.443Z,3.47
2023-04-10T12:42:49.220Z,2.67
2023-04-10T12:45:16.486Z,3.13
2023-04-10T12:47:46.513Z,3.08
2023-04-10T12:50:17.498Z,2.85
2023-04-10T12:52:45.905Z,3.20
2023-04-10T12:55:16.844Z,2.90
2023-04-10T12:57:44.911Z,2.90
2023-04-10T13:00:13.237Z,2.53
2023-04-10T13:02:41.257Z,3.00
2023-04-10T13:05:09.343Z,3.38
2023-04-10T13:07:37.462Z,3.05
2023-04-10T13:10:05.641Z,2.97
2023-04-10T13:12:34.754Z,2.90
2023-04-10T13:15:02.777Z,3.03
2023-04-10T13:17:30.027Z,3.13
2023-04-10T13:19:57.245Z,3.00
2023-04-10T13:22:24.378Z,4.13
2023-04-10T13:24:51.526Z,3.75
2023-04-10T13:27:19.713Z,3.05
2023-04-10T13:29:46.856Z,2.90
2023-04-10T13:32:14.023Z,3.00
2023-04-10T13:34:41.179Z,2.75
2023-04-10T13:37:11.958Z,2.88
2023-04-10T13:39:39.166Z,2.58
2023-04-10T13:42:06.352Z,4.43
2023-04-10T13:44:33.512Z,3.08
2023-04-10T13:47:01.008Z,3.42
2023-04-10T13:49:30.392Z,2.90
2023-04-10T13:51:58.147Z,2.60
2023-04-10T13:54:26.450Z,2.58
2023-04-10T13:56:54.657Z,4.63
2023-04-10T13:59:22.053Z,6.35
2023-04-10T14:01:52.445Z,3.03
2023-04-10T14:04:19.930Z,2.60
2023-04-10T14:06:47.395Z,2.50
2023-04-10T14:09:15.823Z,2.85
2023-04-10T14:11:43.064Z,2.85
2023-04-10T14:14:10.292Z,2.70
2023-04-10T14:16:37.474Z,2.65
2023-04-10T14:19:04.675Z,2.70
2023-04-10T14:21:31.878Z,2.60
2023-04-10T14:23:59.952Z,2.20
2023-04-10T14:26:27.260Z,2.40
2023-04-10T14:28:54.766Z,2.15
2023-04-10T14:31:22.172Z,2.67
2023-04-10T14:33:49.860Z,2.05
2023-04-10T14:36:17.106Z,2.15
2023-04-10T14:38:44.295Z,2.33
2023-04-10T14:41:11.524Z,2.03
2023-04-10T14:43:38.878Z,2.00
2023-04-10T14:46:06.126Z,2.25
2023-04-10T14:48:33.402Z,1.95
2023-04-10T14:51:01.375Z,2.40
2023-04-10T14:53:28.640Z,2.28
2023-04-10T14:55:55.822Z,2.45
2023-04-10T14:58:23.063Z,2.50
2023-04-10T15:00:50.861Z,2.20
2023-04-10T15:03:18.269Z,2.35
2023-04-10T15:05:45.715Z,2.00
2023-04-10T15:08:12.926Z,2.53
2023-04-10T15:10:40.119Z,2.25
2023-04-10T15:13:07.339Z,2.45
2023-04-10T15:15:34.518Z,2.08
2023-04-10T15:18:01.715Z,2.40
2023-04-10T15:20:28.899Z,2.55
2023-04-10T15:22:56.153Z,2.20
2023-04-10T15:25:23.476Z,2.70
2023-04-10T15:27:50.700Z,2.50
2023-04-10T15:30:17.862Z,2.20
2023-04-10T15:32:45.088Z,2.20
2023-04-10T15:35:12.301Z,2.30
2023-04-10T15:37:39.521Z,2.47
2023-04-10T15:40:07.559Z,2.60
2023-04-10T15:42:35.485Z,2.20
2023-04-10T15:45:03.159Z,1.95
2023-04-10T15:47:30.775Z,1.98
2023-04-10T15:49:58.092Z,2.13
2023-04-10T15:52:25.419Z,2.60
2023-04-10T15:54:52.915Z,2.65
2023-04-10T15:57:20.145Z,2.60
2023-04-10T15:59:47.292Z,2.42
2023-04-10T16:02:14.563Z,2.42
2023-04-10T16:04:41.955Z,1.92
2023-04-10T16:07:09.218Z,2.38
2023-04-10T16:09:36.431Z,2.28
2023-04-10T16:12:03.599Z,2.53
2023-04-10T16:14:30.895Z,2.25
2023-04-10T16:16:58.081Z,2.65
2023-04-10T16:19:25.275Z,3.00
2023-04-10T16:21:54.805Z,2.55
2023-04-10T16:24:21.973Z,2.65
2023-04-10T16:26:49.259Z,2.53
2023-04-10T16:29:18.358Z,2.35
2023-04-10T16:31:45.685Z,2.17
2023-04-10T16:34:13.094Z,2.67
2023-04-10T16:36:40.561Z,3.28
2023-04-10T16:39:08.570Z,4.25
2023-04-10T16:41:35.805Z,24.17
2023-04-10T16:44:03.192Z,4.15
2023-04-10T16:46:31.162Z,3.55
2023-04-10T16:49:01.315Z,3.83
2023-04-10T16:51:28.677Z,2.40
2023-04-10T16:53:56.038Z,2.95
2023-04-10T16:56:23.213Z,3.15
2023-04-10T16:58:50.474Z,2.58
2023-04-10T17:01:18.699Z,3.30
2023-04-10T17:03:47.540Z,2.78
2023-04-10T17:06:16.189Z,3.50
2023-04-10T17:08:43.799Z,3.42
2023-04-10T17:11:12.664Z,3.38
2023-04-10T17:13:40.764Z,3.03
2023-04-10T17:16:08.481Z,2.70
2023-04-10T17:18:35.641Z,3.85
2023-04-10T17:21:02.849Z,3.00
2023-04-10T17:23:30.429Z,3.80
2023-04-10T17:25:57.566Z,6.30
2023-04-10T17:28:24.821Z,3.28
2023-04-10T17:30:52.009Z,3.78
2023-04-10T17:33:19.506Z,3.60
2023-04-10T17:35:46.692Z,4.10
2023-04-10T17:38:13.894Z,3.58
2023-04-10T17:40:41.938Z,3.25
2023-04-10T17:43:09.207Z,21.42
2023-04-10T17:45:39.676Z,4.15
2023-04-10T17:48:07.542Z,3.60
2023-04-10T17:50:34.878Z,4.37
2023-04-10T17:53:02.090Z,4.30
2023-04-10T17:55:29.353Z,4.30
2023-04-10T17:57:58.603Z,4.00
2023-04-10T18:00:25.974Z,3.53
2023-04-10T18:02:58.326Z,4.27
2023-04-10T18:05:25.811Z,4.67
2023-04-10T18:07:53.059Z,4.40
2023-04-10T18:10:20.313Z,4.63
2023-04-10T18:12:47.469Z,5.13
2023-04-10T18:15:15.126Z,4.13
2023-04-10T18:17:42.521Z,4.47
2023-04-10T18:20:09.962Z,4.80
2023-04-10T18:22:37.195Z,3.83
2023-04-10T18:25:05.280Z,4.23
2023-04-10T18:27:34.780Z,4.20
2023-04-10T18:30:02.154Z,5.40
2023-04-10T18:32:29.501Z,4.63
2023-04-10T18:34:56.707Z,5.70
2023-04-10T18:37:23.980Z,5.57
2023-04-10T18:39:51.193Z,6.07
2023-04-10T18:42:18.330Z,5.80
2023-04-10T18:44:45.650Z,5.90
2023-04-10T18:47:12.822Z,5.37
2023-04-10T18:49:39.981Z,5.37
2023-04-10T18:52:07.596Z,6.40
2023-04-10T18:54:35.415Z,6.27
2023-04-10T18:57:03.012Z,6.20
2023-04-10T18:59:31.677Z,5.50
2023-04-10T19:01:58.882Z,5.30
2023-04-10T19:04:26.175Z,4.90
2023-04-10T19:06:53.654Z,4.50
2023-04-10T19:09:20.859Z,4.27
2023-04-10T19:11:48.060Z,4.80
2023-04-10T19:14:15.432Z,4.70
2023-04-10T19:16:42.629Z,2.90
2023-04-10T19:19:09.938Z,2.70
2023-04-10T19:21:37.133Z,2.33
2023-04-10T19:24:04.438Z,1.93
2023-04-10T19:26:31.594Z,2.93
2023-04-10T19:28:59.824Z,1.73
2023-04-10T19:31:29.502Z,2.00
2023-04-10T19:33:56.856Z,2.63
2023-04-10T19:36:24.084Z,2.53
2023-04-10T19:38:51.317Z,3.10
2023-04-10T19:41:18.729Z,3.00
2023-04-10T19:43:45.916Z,4.63
2023-04-10T19:46:17.063Z,4.47
2023-04-10T19:48:44.260Z,3.90
2023-04-10T19:51:11.476Z,4.33
2023-04-10T19:53:38.674Z,5.03
2023-04-10T19:56:06.176Z,5.60
2023-04-10T19:58:40.720Z,5.13
2023-04-10T20:01:20.761Z,4.97
2023-04-10T20:03:48.278Z,5.67
2023-04-10T20:06:16.358Z,4.10
2023-04-10T20:08:43.579Z,3.77
2023-04-10T20:11:10.843Z,2.83
2023-04-10T20:13:39.293Z,2.87
2023-04-10T20:16:07.777Z,3.23
2023-04-10T20:18:35.214Z,3.63
2023-04-10T20:21:02.444Z,4.40
2023-04-10T20:23:29.647Z,4.40
2023-04-10T20:25:56.886Z,5.37
2023-04-10T20:28:24.662Z,4.90
2023-04-10T20:30:52.025Z,4.20
2023-04-10T20:33:22.023Z,4.90
2023-04-10T20:35:49.290Z,5.70
2023-04-10T20:38:18.423Z,6.33
2023-04-10T20:40:45.993Z,4.77
2023-04-10T20:43:14.103Z,4.23
2023-04-10T20:45:41.597Z,4.23
2023-04-10T20:48:11.715Z,4.00
2023-04-10T20:50:43.653Z,3.10
2023-04-10T20:53:12.696Z,2.43
2023-04-10T20:55:40.383Z,2.00
2023-04-10T20:58:07.954Z,1.80
2023-04-10T21:00:35.723Z,2.00
2023-04-10T21:03:03.238Z,2.60
2023-04-10T21:05:30.609Z,3.13
2023-04-10T21:07:58.314Z,3.20
2023-04-10T21:10:25.552Z,2.53
2023-04-10T21:12:52.855Z,2.47
2023-04-10T21:15:20.164Z,3.20
2023-04-10T21:17:47.449Z,1.83
2023-04-10T21:20:14.679Z,2.13
2023-04-10T21:22:41.892Z,1.70
2023-04-10T21:25:09.391Z,2.03
2023-04-10T21:27:36.606Z,1.80
2023-04-10T21:30:03.997Z,1.57
2023-04-10T21:32:31.199Z,2.20
2023-04-10T21:34:58.519Z,1.70
2023-04-10T21:37:25.755Z,2.17
2023-04-10T21:39:52.984Z,1.60
2023-04-10T21:42:20.228Z,1.60
2023-04-10T21:44:47.490Z,2.23
2023-04-10T21:47:14.689Z,1.70
2023-04-10T21:49:41.818Z,1.77
2023-04-10T21:52:10.876Z,1.30
2023-04-10T21:54:38.335Z,1.00
2023-04-10T21:57:05.854Z,1.30
2023-04-10T21:59:33.364Z,3.80
2023-04-10T22:02:00.739Z,1.13
2023-04-10T22:04:28.013Z,1.50
2023-04-10T22:06:55.721Z,1.47
2023-04-10T22:09:22.970Z,1.27
2023-04-10T22:11:50.422Z,0.90
2023-04-10T22:14:19.506Z,1.30
2023-04-10T22:16:48.698Z,1.20
2023-04-10T22:19:16.099Z,1.00
2023-04-10T22:21:43.248Z,1.33
2023-04-10T22:24:10.589Z,1.07
2023-04-10T22:26:37.743Z,1.60
2023-04-10T22:29:04.988Z,1.27
2023-04-10T22:31:32.283Z,1.07
2023-04-10T22:33:59.480Z,1.20
2023-04-10T22:36:34.150Z,1.30
2023-04-10T22:39:01.360Z,1.70
2023-04-10T22:41:29.850Z,1.07
2023-04-10T22:43:56.688Z,1.80
2023-04-10T22:46:23.750Z,1.00
2023-04-10T22:48:50.774Z,1.20
2023-04-10T22:51:18.076Z,1.30
2023-04-10T22:53:44.865Z,1.30
2023-04-10T22:56:11.823Z,1.00
2023-04-10T22:58:40.060Z,1.03
2023-04-10T23:01:08.365Z,1.30
2023-04-10T23:03:35.982Z,1.20
2023-04-10T23:06:03.154Z,1.33
2023-04-10T23:08:30.036Z,1.27
2023-04-10T23:10:57.334Z,1.20
2023-04-10T23:13:24.431Z,1.83
2023-04-10T23:15:52.639Z,1.63
2023-04-10T23:18:19.771Z,1.40
2023-04-10T23:20:47.370Z,1.70
2023-04-10T23:23:14.446Z,1.60
2023-04-10T23:25:41.672Z,1.40
2023-04-10T23:28:08.671Z,1.37
2023-04-10T23:30:39.347Z,1.40
2023-04-10T23:33:06.396Z,1.30
2023-04-10T23:35:33.243Z,1.73
2023-04-10T23:38:00.984Z,1.17
2023-04-10T23:40:27.931Z,2.00
2023-04-10T23:42:54.846Z,1.40
2023-04-10T23:45:21.661Z,1.30
2023-04-10T23:47:50.657Z,1.23
2023-04-10T23:50:17.949Z,1.30
2023-04-10T23:52:51.206Z,1.47
2023-04-10T23:55:18.678Z,1.20
2023-04-10T23:57:45.641Z,1.50
